Time;durP1;ratioP1;P1;durP2;ratioP2;P2;SDS_P1;SDS_P2;PMS_P1;PMS_P2;Temp;Humidity;BMP_temperature;BMP_pressure;BME280_temperature;BME280_humidity;BME280_pressure;Samples;Min_cycle;Max_cycle;Signal;HPM_P1;HPM_P2
2021/04/23 00:01:45;;;;;;;13.88;10.80;;;;;;;11.89;65.34;100339.55;1728672;82;21026;-58
2021/04/23 00:04:14;;;;;;;13.32;10.40;;;;;;;11.90;65.32;100338.56;1705865;82;21191;-57
2021/04/23 00:06:49;;;;;;;15.03;11.28;;;;;;;11.90;65.21;100339.88;1730929;82;21184;-57
2021/04/23 00:09:21;;;;;;;15.60;10.35;;;;;;;11.85;65.16;100338.13;1733170;80;21168;-58
2021/04/23 00:11:56;;;;;;;15.45;10.28;;;;;;;11.82;65.15;100330.01;1745741;82;21249;-58
2021/04/23 00:14:27;;;;;;;15.40;10.68;;;;;;;11.81;65.07;100323.05;1730925;82;21148;-57
2021/04/23 00:16:54;;;;;;;14.20;8.73;;;;;;;11.81;64.96;100328.82;1723322;82;21191;-58
2021/04/23 00:19:24;;;;;;;13.88;9.65;;;;;;;11.82;64.85;100329.19;1693429;82;21173;-58
2021/04/23 00:21:53;;;;;;;15.50;10.48;;;;;;;11.90;64.62;100322.73;1737073;82;21176;-58
2021/04/23 00:24:20;;;;;;;14.63;9.90;;;;;;;11.99;64.73;100325.94;1743249;82;21379;-58
2021/04/23 00:26:48;;;;;;;13.58;10.65;;;;;;;12.07;64.91;100334.02;1698101;82;21198;-58
2021/04/23 00:29:16;;;;;;;16.45;10.28;;;;;;;12.05;65.01;100339.92;1737599;82;21113;-58
2021/04/23 00:34:32;;;;;;;15.25;10.68;;;;;;;12.03;65.28;100347.11;1737552;82;21133;-58
2021/04/23 00:36:59;;;;;;;15.25;10.95;;;;;;;11.96;65.18;100356.53;1702593;82;21148;-59
2021/04/23 00:39:27;;;;;;;14.55;11.10;;;;;;;11.92;65.30;100347.23;1731229;82;21148;-59
2021/04/23 00:41:54;;;;;;;14.78;10.32;;;;;;;11.85;65.44;100352.16;1728028;82;21174;-59
2021/04/23 00:44:22;;;;;;;12.85;9.68;;;;;;;11.77;65.65;100351.98;1710028;82;21160;-59
2021/04/23 00:46:50;;;;;;;14.13;9.53;;;;;;;11.76;65.72;100356.89;1723205;82;21152;-59
2021/04/23 00:49:18;;;;;;;12.78;9.30;;;;;;;11.86;65.70;100365.67;1714578;82;21322;-59
2021/04/23 00:51:53;;;;;;;13.83;9.35;;;;;;;11.94;65.67;100366.37;1696691;82;21185;-59
2021/04/23 00:54:22;;;;;;;14.50;9.38;;;;;;;11.99;65.74;100360.72;1713821;82;21145;-59
2021/04/23 00:56:53;;;;;;;14.47;9.55;;;;;;;12.00;65.53;100359.27;1719692;82;21118;-59
2021/04/23 00:59:21;;;;;;;13.75;10.08;;;;;;;11.95;65.62;100364.08;1705447;84;21114;-59
2021/04/23 01:01:59;;;;;;;16.20;9.40;;;;;;;11.91;65.75;100370.59;1703317;82;21230;-58
2021/04/23 01:04:29;;;;;;;14.73;9.63;;;;;;;11.84;66.13;100379.48;1734655;82;21193;-59
2021/04/23 01:06:57;;;;;;;13.38;9.48;;;;;;;11.76;66.37;100367.44;1728022;82;21209;-59
2021/04/23 01:09:27;;;;;;;14.35;8.73;;;;;;;11.68;66.72;100350.11;1720622;82;21133;-59
2021/04/23 01:11:56;;;;;;;12.78;8.43;;;;;;;11.68;66.86;100364.15;1716759;82;21609;-58
2021/04/23 01:14:24;;;;;;;13.98;9.40;;;;;;;11.75;66.84;100364.92;1697920;82;21279;-59
2021/04/23 01:16:52;;;;;;;13.88;9.23;;;;;;;11.77;66.88;100361.20;1695571;82;21130;-59
2021/04/23 01:19:23;;;;;;;14.65;9.75;;;;;;;11.77;67.03;100361.67;1731052;82;21149;-59
2021/04/23 01:21:51;;;;;;;17.42;10.58;;;;;;;11.76;67.17;100360.84;1726760;82;21157;-59
2021/04/23 01:24:19;;;;;;;15.32;10.20;;;;;;;11.76;67.32;100364.80;1686352;83;21569;-59
2021/04/23 01:26:52;;;;;;;14.50;9.43;;;;;;;11.76;67.28;100365.29;1687828;82;21144;-58
2021/04/23 01:29:21;;;;;;;13.72;9.38;;;;;;;11.75;67.27;100360.97;1708749;82;21177;-58
2021/04/23 01:31:55;;;;;;;14.87;10.18;;;;;;;11.73;67.24;100368.18;1725413;82;21130;-58
2021/04/23 01:34:30;;;;;;;15.05;10.32;;;;;;;11.66;67.25;100363.42;1717055;82;21176;-58
2021/04/23 01:36:59;;;;;;;13.38;10.35;;;;;;;11.58;67.40;100364.55;1723495;82;21236;-59
2021/04/23 01:39:29;;;;;;;12.18;8.50;;;;;;;11.61;67.49;100370.89;1726642;81;21199;-59
2021/04/23 01:41:57;;;;;;;13.00;8.63;;;;;;;11.70;67.22;100362.22;1706386;82;21141;-58
2021/04/23 01:44:25;;;;;;;13.78;9.13;;;;;;;11.79;67.11;100366.35;1723282;82;21173;-59
2021/04/23 01:46:53;;;;;;;14.45;9.40;;;;;;;11.85;66.88;100368.44;1727074;82;21173;-58
2021/04/23 01:49:22;;;;;;;14.40;9.83;;;;;;;11.85;66.87;100371.08;1707332;83;21189;-58
2021/04/23 01:51:55;;;;;;;13.08;9.78;;;;;;;11.84;66.91;100374.70;1724169;82;21429;-58
2021/04/23 01:54:23;;;;;;;14.93;10.40;;;;;;;11.81;66.93;100370.52;1734213;82;21205;-58
2021/04/23 01:56:51;;;;;;;14.00;10.20;;;;;;;11.77;67.03;100375.70;1714882;82;21161;-58
2021/04/23 01:59:19;;;;;;;16.67;12.07;;;;;;;11.72;67.19;100372.63;1713062;82;21133;-58
2021/04/23 02:01:47;;;;;;;17.00;10.20;;;;;;;11.63;67.36;100376.03;1694047;83;21176;-58
2021/04/23 02:04:16;;;;;;;12.20;9.08;;;;;;;11.59;67.46;100378.59;1706293;82;21264;-58
2021/04/23 02:06:46;;;;;;;14.90;9.40;;;;;;;11.63;67.42;100382.16;1721897;82;21671;-59
2021/04/23 02:09:14;;;;;;;14.85;9.45;;;;;;;11.62;67.53;100387.55;1720093;82;21148;-59
2021/04/23 02:11:44;;;;;;;13.62;9.38;;;;;;;11.53;67.64;100386.05;1709702;82;21161;-59
2021/04/23 02:14:11;;;;;;;13.30;8.88;;;;;;;11.47;67.83;100390.50;1708865;82;21157;-58
2021/04/23 02:16:39;;;;;;;15.08;9.28;;;;;;;11.39;68.06;100390.80;1722243;82;21379;-58
2021/04/23 02:19:10;;;;;;;12.88;9.15;;;;;;;11.30;68.30;100397.18;1722235;82;21185;-59
2021/04/23 02:21:38;;;;;;;12.55;8.60;;;;;;;11.24;68.63;100402.12;1707434;82;21539;-59
2021/04/23 02:24:07;;;;;;;12.43;7.47;;;;;;;11.20;68.77;100402.03;1706323;82;21224;-58
2021/04/23 02:26:37;;;;;;;13.53;8.68;;;;;;;11.22;68.71;100398.29;1710101;82;21189;-58
2021/04/23 02:29:10;;;;;;;13.10;8.95;;;;;;;11.20;68.88;100394.95;1738367;82;21244;-58
2021/04/23 02:31:40;;;;;;;13.58;8.25;;;;;;;11.24;68.96;100392.41;1696150;83;21568;-58
2021/04/23 02:34:11;;;;;;;12.30;8.85;;;;;;;11.26;68.90;100393.59;1709229;82;21620;-58
2021/04/23 02:36:40;;;;;;;12.58;8.20;;;;;;;11.30;68.90;100389.77;1733271;82;21553;-58
2021/04/23 02:39:10;;;;;;;12.65;9.13;;;;;;;11.36;68.82;100391.88;1719489;82;21177;-58
2021/04/23 02:41:38;;;;;;;11.80;8.45;;;;;;;11.43;68.56;100396.15;1721398;82;22233;-58
2021/04/23 02:44:06;;;;;;;14.63;9.63;;;;;;;11.52;68.33;100401.98;1721835;82;21200;-59
2021/04/23 02:46:34;;;;;;;11.78;8.58;;;;;;;11.55;68.25;100409.64;1721062;82;21169;-58
2021/04/23 02:49:03;;;;;;;12.65;8.40;;;;;;;11.48;68.29;100409.77;1701825;82;21185;-59
2021/04/23 02:51:33;;;;;;;14.45;9.15;;;;;;;11.39;68.64;100419.77;1709883;82;21254;-59
2021/04/23 02:54:01;;;;;;;12.70;8.55;;;;;;;11.29;68.90;100427.11;1701449;82;21225;-58
2021/04/23 02:56:29;;;;;;;12.93;8.70;;;;;;;11.18;69.23;100428.48;1709862;82;21200;-58
2021/04/23 02:58:58;;;;;;;11.03;6.83;;;;;;;11.13;69.59;100441.20;1693357;82;21184;-58
2021/04/23 03:01:33;;;;;;;11.43;6.22;;;;;;;11.12;65.07;100444.78;1722740;81;21191;-57
2021/04/23 03:04:00;;;;;;;8.50;5.65;;;;;;;11.01;63.22;100455.34;1721589;81;21141;-57
2021/04/23 03:06:28;;;;;;;10.63;5.45;;;;;;;10.81;61.97;100464.37;1702522;82;21227;-60
2021/04/23 03:08:56;;;;;;;11.08;5.25;;;;;;;10.63;62.89;100467.98;1714616;82;21141;-60
2021/04/23 03:11:24;;;;;;;8.83;4.50;;;;;;;10.44;62.93;100483.52;1716474;82;21145;-60
2021/04/23 03:13:57;;;;;;;8.10;4.62;;;;;;;10.29;63.21;100491.63;1715930;82;21188;-62
2021/04/23 03:16:24;;;;;;;8.93;4.42;;;;;;;10.16;63.52;100492.21;1709240;82;21169;-61
2021/04/23 03:18:52;;;;;;;7.00;4.05;;;;;;;10.10;63.41;100500.07;1705858;82;21438;-61
2021/04/23 03:21:25;;;;;;;7.60;3.05;;;;;;;10.07;62.57;100502.10;1715256;82;21126;-60
2021/04/23 03:23:52;;;;;;;7.37;4.60;;;;;;;9.96;61.99;100506.88;1710046;82;21153;-61
2021/04/23 03:26:21;;;;;;;9.65;3.62;;;;;;;9.83;61.87;100512.20;1713914;82;21192;-61
2021/04/23 03:28:49;;;;;;;9.38;3.77;;;;;;;9.72;61.98;100510.39;1687212;83;21591;-61
2021/04/23 03:31:17;;;;;;;8.28;4.58;;;;;;;9.62;62.41;100521.22;1689283;83;21181;-63
2021/04/23 03:33:45;;;;;;;9.18;4.60;;;;;;;9.50;61.80;100520.34;1703109;82;21607;-61
2021/04/23 03:36:12;;;;;;;8.53;4.03;;;;;;;9.36;61.55;100530.99;1730793;82;21133;-60
2021/04/23 03:38:44;;;;;;;14.75;4.10;;;;;;;9.26;62.07;100530.81;1713866;82;21188;-60
2021/04/23 03:41:19;;;;;;;9.60;3.87;;;;;;;9.24;61.89;100538.80;1734803;81;21214;-61
2021/04/23 03:43:46;;;;;;;10.03;4.12;;;;;;;9.18;62.35;100540.58;1745762;81;21352;-62
2021/04/23 03:46:14;;;;;;;8.50;3.87;;;;;;;9.14;62.73;100545.66;1717195;81;21187;-62
2021/04/23 03:48:43;;;;;;;12.40;4.70;;;;;;;9.08;62.38;100546.95;1732654;81;21190;-60
2021/04/23 03:51:12;;;;;;;9.03;3.80;;;;;;;8.95;62.08;100544.83;1709306;83;21651;-59
2021/04/23 03:53:40;;;;;;;8.55;3.90;;;;;;;8.84;62.54;100549.53;1727000;81;21164;-60
2021/04/23 03:56:07;;;;;;;6.95;3.27;;;;;;;8.73;62.55;100556.00;1717956;81;21480;-61
2021/04/23 03:58:35;;;;;;;7.75;3.58;;;;;;;8.67;62.29;100562.48;1700593;81;21204;-60
2021/04/23 04:01:06;;;;;;;6.90;3.33;;;;;;;8.52;62.50;100570.11;1731602;81;21176;-59
2021/04/23 04:03:35;;;;;;;7.47;2.83;;;;;;;8.42;63.24;100572.95;1760499;80;21196;-57
2021/04/23 04:06:04;;;;;;;11.15;3.83;;;;;;;8.31;63.95;100569.77;1721474;81;21180;-56
2021/04/23 04:08:32;;;;;;;9.10;3.80;;;;;;;8.27;64.25;100576.14;1737678;81;21262;-58
2021/04/23 04:11:00;;;;;;;8.30;3.52;;;;;;;8.31;64.78;100573.22;1734687;81;21128;-58
2021/04/23 04:13:28;;;;;;;6.78;3.58;;;;;;;8.29;65.04;100578.22;1717012;81;21128;-58
2021/04/23 04:15:57;;;;;;;7.78;3.90;;;;;;;8.23;65.29;100580.75;1713776;81;21135;-58
2021/04/23 04:18:25;;;;;;;7.17;3.58;;;;;;;8.13;65.21;100584.94;1708667;81;21220;-58
2021/04/23 04:20:52;;;;;;;10.90;3.98;;;;;;;8.07;65.92;100578.78;1747230;81;21254;-57
2021/04/23 04:23:21;;;;;;;7.20;3.45;;;;;;;8.09;66.19;100586.09;1752090;81;21189;-58
2021/04/23 04:25:55;;;;;;;8.98;3.60;;;;;;;8.05;66.27;100585.91;1750343;81;21172;-58
2021/04/23 04:28:24;;;;;;;7.12;4.05;;;;;;;8.05;66.57;100595.09;1756536;81;21136;-58
2021/04/23 04:30:52;;;;;;;10.63;3.77;;;;;;;8.04;66.77;100593.42;1753478;81;21176;-57
2021/04/23 04:33:22;;;;;;;6.92;3.20;;;;;;;8.06;66.57;100593.67;1742127;81;21206;-57
2021/04/23 04:35:49;;;;;;;7.95;3.00;;;;;;;8.16;66.35;100590.81;1742246;81;21171;-56
2021/04/23 04:38:16;;;;;;;11.78;4.12;;;;;;;8.16;66.12;100589.98;1738967;81;21127;-57
2021/04/23 04:40:46;;;;;;;7.22;3.52;;;;;;;8.12;65.59;100595.04;1722170;81;21161;-56
2021/04/23 04:43:15;;;;;;;6.95;3.47;;;;;;;8.10;65.67;100594.31;1727935;81;21145;-57
2021/04/23 04:45:43;;;;;;;7.70;3.67;;;;;;;8.05;65.86;100599.84;1728608;82;21642;-57
2021/04/23 04:48:10;;;;;;;8.18;3.67;;;;;;;8.06;65.78;100598.09;1735302;82;21223;-57
2021/04/23 04:50:49;;;;;;;9.43;4.03;;;;;;;8.11;65.78;100603.86;1726230;82;21132;-57
2021/04/23 04:53:17;;;;;;;6.80;3.08;;;;;;;8.11;66.06;100606.48;1732343;82;21172;-57
2021/04/23 04:55:49;;;;;;;6.42;3.40;;;;;;;8.07;66.00;100607.61;1729702;82;21152;-56
2021/04/23 04:58:18;;;;;;;7.03;3.52;;;;;;;8.04;66.41;100603.43;1731602;82;22272;-57
2021/04/23 05:00:45;;;;;;;6.30;3.35;;;;;;;8.00;66.57;100608.03;1726136;82;21204;-57
2021/04/23 05:03:13;;;;;;;6.60;3.40;;;;;;;8.06;66.54;100608.58;1729115;82;21200;-58
2021/04/23 05:05:41;;;;;;;9.43;3.62;;;;;;;8.13;66.73;100605.42;1732057;82;21211;-58
2021/04/23 05:08:09;;;;;;;5.72;3.17;;;;;;;8.14;66.68;100608.91;1733400;82;21228;-58
2021/04/23 05:10:37;;;;;;;6.75;3.60;;;;;;;8.16;66.85;100616.19;1733603;82;21207;-58
2021/04/23 05:13:04;;;;;;;8.70;3.72;;;;;;;8.17;67.02;100627.89;1736469;82;21207;-58
2021/04/23 05:15:32;;;;;;;8.40;3.27;;;;;;;8.16;67.21;100621.44;1729936;82;21531;-58
2021/04/23 05:17:59;;;;;;;6.92;2.80;;;;;;;8.19;67.17;100621.23;1721834;82;21547;-58
2021/04/23 05:20:28;;;;;;;9.60;4.33;;;;;;;8.27;66.79;100631.20;1724414;82;21224;-57
2021/04/23 05:22:55;;;;;;;8.05;3.42;;;;;;;8.34;66.82;100631.18;1742343;82;22029;-62
2021/04/23 05:25:25;;;;;;;6.90;3.60;;;;;;;8.38;67.06;100632.16;1707675;82;21160;-63
2021/04/23 05:27:53;;;;;;;8.43;3.77;;;;;;;8.45;67.10;100629.17;1725964;81;21196;-62
2021/04/23 05:30:25;;;;;;;8.43;3.90;;;;;;;8.52;67.24;100622.56;1731501;82;21176;-62
2021/04/23 05:32:53;;;;;;;11.33;3.80;;;;;;;8.59;66.90;100627.78;1728261;81;21642;-61
2021/04/23 05:35:22;;;;;;;9.20;3.60;;;;;;;8.72;67.13;100635.19;1709256;82;21212;-59
2021/04/23 05:37:50;;;;;;;7.97;3.77;;;;;;;8.87;65.99;100624.56;1742662;81;21156;-61
2021/04/23 05:40:28;;;;;;;7.85;3.70;;;;;;;8.95;65.48;100631.44;1729791;80;21713;-61
2021/04/23 05:42:56;;;;;;;7.53;3.25;;;;;;;8.97;66.10;100627.39;1729888;82;21160;-61
2021/04/23 05:45:24;;;;;;;8.45;3.75;;;;;;;9.03;65.81;100621.73;1732702;82;21144;-59
2021/04/23 05:47:52;;;;;;;9.63;3.98;;;;;;;9.06;65.49;100622.80;1744824;82;21248;-61
2021/04/23 05:50:21;;;;;;;11.00;3.77;;;;;;;9.02;65.38;100622.19;1727533;82;21179;-58
2021/04/23 05:52:49;;;;;;;7.92;3.77;;;;;;;9.02;64.70;100619.56;1725284;82;22301;-58
2021/04/23 05:55:20;;;;;;;6.85;3.15;;;;;;;9.03;64.38;100619.11;1730098;82;21184;-59
2021/04/23 05:57:47;;;;;;;7.95;3.52;;;;;;;8.99;64.67;100617.14;1710127;82;21228;-58
2021/04/23 06:00:18;;;;;;;7.53;3.77;;;;;;;9.02;64.92;100627.91;1730956;82;23511;-58
2021/04/23 06:02:48;;;;;;;8.85;3.37;;;;;;;9.03;64.86;100621.73;1730893;82;21164;-59
2021/04/23 06:05:19;;;;;;;6.72;3.12;;;;;;;9.04;64.43;100628.64;1729554;82;21611;-58
2021/04/23 06:07:48;;;;;;;7.72;2.75;;;;;;;9.03;64.25;100634.38;1735046;82;21176;-59
2021/04/23 06:10:16;;;;;;;6.42;2.85;;;;;;;9.00;63.40;100634.58;1706280;82;21239;-58
2021/04/23 06:12:44;;;;;;;9.85;3.65;;;;;;;9.05;63.13;100644.77;1714812;82;21251;-60
2021/04/23 06:15:13;;;;;;;5.85;2.58;;;;;;;9.13;62.92;100646.84;1702871;82;21212;-62
2021/04/23 06:17:41;;;;;;;6.45;2.72;;;;;;;9.13;60.91;100650.33;1733286;82;21173;-63
2021/04/23 06:20:13;;;;;;;6.45;2.55;;;;;;;9.07;61.48;100650.27;1735927;82;21219;-61
2021/04/23 06:22:40;;;;;;;7.28;2.83;;;;;;;9.03;61.21;100650.13;1733222;82;21157;-62
2021/04/23 06:25:10;;;;;;;6.12;2.58;;;;;;;9.05;61.00;100649.53;1732912;82;22675;-59
2021/04/23 06:27:39;;;;;;;9.23;2.85;;;;;;;9.06;61.01;100655.62;1731596;82;21125;-60
2021/04/23 06:30:10;;;;;;;7.90;3.15;;;;;;;9.05;60.94;100655.27;1736390;82;21121;-59
2021/04/23 06:32:40;;;;;;;8.33;3.17;;;;;;;8.99;60.59;100660.93;1699888;82;21199;-59
2021/04/23 06:35:11;;;;;;;7.55;3.42;;;;;;;9.00;61.15;100660.00;1730750;82;21556;-57
2021/04/23 06:37:38;;;;;;;7.30;3.37;;;;;;;9.14;61.51;100660.34;1703771;82;21155;-57
2021/04/23 06:40:07;;;;;;;7.17;3.77;;;;;;;9.28;61.78;100654.98;1724567;82;21195;-60
2021/04/23 06:42:37;;;;;;;5.92;2.90;;;;;;;9.40;61.72;100656.73;1731277;82;21098;-58
2021/04/23 06:45:09;;;;;;;8.85;3.27;;;;;;;9.52;60.50;100660.28;1698429;82;21216;-58
2021/04/23 06:47:36;;;;;;;6.15;2.85;;;;;;;9.54;60.30;100661.00;1721121;82;21205;-58
2021/04/23 06:50:07;;;;;;;8.48;3.22;;;;;;;9.54;60.56;100654.43;1714357;82;21213;-58
2021/04/23 06:52:35;;;;;;;8.00;3.80;;;;;;;9.51;60.38;100663.02;1714749;82;21746;-57
2021/04/23 06:55:02;;;;;;;7.58;3.52;;;;;;;9.49;60.90;100663.12;1704659;82;21537;-58
2021/04/23 06:57:30;;;;;;;8.25;3.85;;;;;;;9.48;60.33;100666.23;1718887;82;21618;-58
2021/04/23 06:59:58;;;;;;;8.80;4.67;;;;;;;9.53;61.11;100663.28;1700379;82;21172;-58
2021/04/23 07:02:26;;;;;;;8.50;3.37;;;;;;;9.59;59.84;100663.30;1716469;82;22002;-58
2021/04/23 07:04:54;;;;;;;7.85;3.22;;;;;;;9.63;59.52;100666.92;1720257;82;21205;-57
2021/04/23 07:07:21;;;;;;;8.48;3.92;;;;;;;9.66;59.67;100660.11;1720440;82;21164;-57
2021/04/23 07:09:48;;;;;;;8.78;3.52;;;;;;;9.70;59.60;100652.88;1713755;82;21188;-57
2021/04/23 07:12:17;;;;;;;8.68;3.85;;;;;;;9.70;59.33;100659.90;1721335;82;21168;-57
2021/04/23 07:14:44;;;;;;;6.50;3.47;;;;;;;9.69;59.73;100659.06;1715045;82;22109;-57
2021/04/23 07:17:12;;;;;;;6.72;3.22;;;;;;;9.76;59.52;100652.41;1718471;82;21204;-56
2021/04/23 07:19:40;;;;;;;7.20;4.00;;;;;;;9.92;58.87;100652.61;1714548;82;21189;-57
2021/04/23 07:22:07;;;;;;;7.33;3.95;;;;;;;10.04;58.64;100656.50;1720293;82;21188;-57
2021/04/23 07:24:35;;;;;;;10.20;4.35;;;;;;;10.11;57.86;100658.69;1697084;82;21185;-57
2021/04/23 07:27:04;;;;;;;8.95;3.30;;;;;;;10.16;57.84;100656.07;1716515;82;21244;-57
2021/04/23 07:29:33;;;;;;;8.05;3.02;;;;;;;10.21;57.14;100657.05;1714218;82;21162;-57
2021/04/23 07:32:01;;;;;;;6.83;3.50;;;;;;;10.18;57.04;100656.79;1701292;82;21165;-57
2021/04/23 07:34:30;;;;;;;8.23;3.77;;;;;;;10.16;57.21;100664.45;1717838;82;21154;-57
2021/04/23 07:36:58;;;;;;;8.08;4.42;;;;;;;10.16;57.13;100669.22;1723048;82;21190;-57
2021/04/23 07:39:27;;;;;;;7.42;3.83;;;;;;;10.18;56.54;100676.52;1720246;81;21223;-57
2021/04/23 07:41:56;;;;;;;12.37;4.03;;;;;;;10.19;56.51;100687.41;1700665;82;21165;-57
2021/04/23 07:44:24;;;;;;;8.58;3.60;;;;;;;10.25;56.44;100680.02;1682420;82;21137;-58
2021/04/23 07:46:52;;;;;;;9.00;3.77;;;;;;;10.28;56.36;100682.42;1729802;81;21145;-58
2021/04/23 07:49:19;;;;;;;12.90;4.12;;;;;;;10.32;56.55;100687.38;1724856;82;21128;-58
2021/04/23 07:51:48;;;;;;;7.65;3.08;;;;;;;10.34;56.76;100682.84;1724833;82;22124;-56
2021/04/23 07:54:15;;;;;;;7.58;3.12;;;;;;;10.44;55.55;100683.00;1702106;82;21525;-57
2021/04/23 07:56:44;;;;;;;9.40;3.52;;;;;;;10.53;54.85;100686.23;1719214;82;21206;-57
2021/04/23 07:59:11;;;;;;;9.60;3.92;;;;;;;10.57;54.21;100675.00;1724081;82;21108;-56
2021/04/23 08:01:39;;;;;;;8.58;4.05;;;;;;;10.62;54.38;100672.03;1695897;82;21207;-56
2021/04/23 08:04:08;;;;;;;10.30;4.25;;;;;;;10.63;54.27;100668.46;1726187;82;21246;-57
2021/04/23 08:06:35;;;;;;;7.83;3.40;;;;;;;10.64;54.28;100663.08;1720515;82;21212;-57
2021/04/23 08:09:04;;;;;;;8.65;3.70;;;;;;;10.67;54.21;100664.63;1728814;82;21128;-57
2021/04/23 08:11:33;;;;;;;6.75;3.17;;;;;;;10.73;54.49;100661.05;1723588;82;22260;-56
2021/04/23 08:14:01;;;;;;;14.10;3.72;;;;;;;10.85;54.60;100661.08;1727694;82;21189;-57
2021/04/23 08:16:30;;;;;;;8.23;3.95;;;;;;;10.96;53.00;100658.44;1728203;82;21208;-57
2021/04/23 08:18:57;;;;;;;9.10;3.50;;;;;;;11.01;52.49;100658.95;1728331;82;21204;-57
2021/04/23 08:21:25;;;;;;;11.53;3.80;;;;;;;11.02;52.29;100663.72;1731524;82;21876;-56
2021/04/23 08:23:54;;;;;;;13.83;4.45;;;;;;;11.00;51.91;100657.75;1727176;81;21178;-56
2021/04/23 08:26:24;;;;;;;10.78;3.80;;;;;;;10.96;52.84;100657.12;1724356;82;21200;-56
2021/04/23 08:28:53;;;;;;;9.10;3.77;;;;;;;10.97;52.84;100665.39;1706014;83;21975;-56
2021/04/23 08:31:23;;;;;;;7.03;3.65;;;;;;;11.04;53.03;100657.85;1729352;82;21172;-56
2021/04/23 08:33:51;;;;;;;10.03;3.50;;;;;;;11.09;52.36;100660.48;1728148;82;21169;-56
2021/04/23 08:36:20;;;;;;;7.75;3.83;;;;;;;11.11;52.29;100666.94;1700685;82;21153;-56
2021/04/23 08:38:48;;;;;;;7.78;4.00;;;;;;;11.14;52.55;100672.81;1727925;81;21164;-56
2021/04/23 08:41:16;;;;;;;7.85;3.98;;;;;;;11.20;53.06;100678.59;1731130;82;21187;-57
2021/04/23 08:43:44;;;;;;;8.35;3.98;;;;;;;11.28;52.87;100684.92;1718729;82;21622;-64
2021/04/23 08:46:12;;;;;;;8.33;4.00;;;;;;;11.37;52.77;100681.21;1698356;82;21217;-63
2021/04/23 08:48:40;;;;;;;7.15;3.87;;;;;;;11.46;52.41;100677.34;1704563;82;21130;-57
2021/04/23 08:51:08;;;;;;;11.18;4.28;;;;;;;11.48;51.39;100683.81;1715038;82;21160;-56
2021/04/23 08:53:37;;;;;;;8.55;4.08;;;;;;;11.47;51.27;100682.16;1728960;82;21169;-58
2021/04/23 08:56:06;;;;;;;10.10;4.10;;;;;;;11.46;51.16;100683.11;1717901;82;21564;-58
2021/04/23 08:58:34;;;;;;;9.85;4.45;;;;;;;11.54;50.93;100678.06;1700807;82;21130;-58
2021/04/23 09:01:01;;;;;;;9.13;4.05;;;;;;;11.67;51.03;100684.53;1730208;82;21188;-58
2021/04/23 09:03:29;;;;;;;6.53;3.33;;;;;;;11.82;51.45;100681.15;1694719;82;21200;-57
2021/04/23 09:06:16;;;;;;;8.83;3.65;;;;;;;11.96;51.50;100679.56;1751326;81;21357;-57
2021/04/23 09:09:08;;;;;;;7.42;3.55;;;;;;;12.02;51.57;100677.76;1721203;82;21164;-57
2021/04/23 09:11:42;;;;;;;6.83;3.60;;;;;;;12.10;51.40;100677.61;1728198;82;21137;-58
2021/04/23 09:14:17;;;;;;;8.58;3.70;;;;;;;12.12;50.88;100673.03;1700156;82;21188;-58
2021/04/23 09:16:55;;;;;;;7.33;3.70;;;;;;;12.17;50.90;100668.22;1719829;82;21137;-58
2021/04/23 09:19:26;;;;;;;8.33;3.45;;;;;;;12.24;50.24;100670.73;1717525;82;21197;-57
2021/04/23 09:22:04;;;;;;;9.05;3.47;;;;;;;12.28;49.68;100673.45;1718590;82;21204;-57
2021/04/23 09:24:38;;;;;;;7.97;3.60;;;;;;;12.36;49.67;100678.11;1717656;82;21176;-56
2021/04/23 09:27:19;;;;;;;10.10;3.45;;;;;;;12.43;49.08;100677.45;1717808;82;21627;-57
2021/04/23 09:29:51;;;;;;;9.10;3.67;;;;;;;12.49;49.37;100671.31;1716735;82;21153;-56
2021/04/23 09:32:31;;;;;;;9.63;3.40;;;;;;;12.56;48.83;100675.13;1720215;82;21487;-58
2021/04/23 09:35:14;;;;;;;8.55;3.02;;;;;;;12.65;48.98;100673.02;1701415;82;21262;-57
2021/04/23 09:37:50;;;;;;;7.37;3.70;;;;;;;12.69;48.94;100675.75;1715351;82;21188;-58
2021/04/23 09:40:32;;;;;;;6.53;3.20;;;;;;;12.81;49.23;100677.37;1720347;82;21667;-57
2021/04/23 09:43:03;;;;;;;9.53;3.25;;;;;;;12.99;47.72;100674.11;1716992;82;21582;-58
2021/04/23 09:45:34;;;;;;;7.55;3.60;;;;;;;13.06;46.51;100673.94;1733514;82;22621;-59
2021/04/23 09:48:02;;;;;;;6.78;3.58;;;;;;;13.07;46.43;100668.19;1722505;82;21181;-58
2021/04/23 09:50:36;;;;;;;8.15;3.45;;;;;;;13.01;46.52;100669.53;1736605;82;21174;-58
2021/04/23 09:53:06;;;;;;;10.43;3.92;;;;;;;13.01;47.30;100670.39;1731659;82;22063;-58
2021/04/23 09:55:34;;;;;;;9.08;3.27;;;;;;;13.09;47.71;100674.17;1735043;82;21184;-59
2021/04/23 09:58:04;;;;;;;9.85;3.92;;;;;;;13.14;48.13;100670.64;1724782;80;21389;-58
2021/04/23 10:00:35;;;;;;;8.10;2.95;;;;;;;13.18;47.87;100671.58;1733952;82;21195;-57
2021/04/23 10:03:04;;;;;;;6.72;3.30;;;;;;;13.25;47.33;100669.23;1708181;82;21164;-57
2021/04/23 10:05:43;;;;;;;5.85;2.95;;;;;;;13.29;46.58;100661.38;1695003;82;21553;-58
2021/04/23 10:08:25;;;;;;;10.48;3.52;;;;;;;13.34;46.16;100646.48;1734343;82;21204;-58
2021/04/23 10:10:57;;;;;;;10.48;3.83;;;;;;;13.36;45.75;100635.28;1703039;82;21184;-57
2021/04/23 10:13:32;;;;;;;7.70;2.85;;;;;;;13.33;45.69;100636.87;1736468;82;21422;-58
2021/04/23 10:16:03;;;;;;;8.80;2.42;;;;;;;13.33;44.97;100644.34;1727564;82;21153;-58
2021/04/23 10:18:32;;;;;;;9.33;2.92;;;;;;;13.34;44.92;100637.23;1733357;82;21525;-58
2021/04/23 10:21:00;;;;;;;6.40;3.00;;;;;;;13.42;42.88;100645.83;1731166;82;21133;-58
2021/04/23 10:23:29;;;;;;;5.95;2.42;;;;;;;13.43;41.25;100639.08;1733153;82;23182;-58
2021/04/23 10:25:56;;;;;;;7.97;2.65;;;;;;;13.43;39.26;100641.73;1737842;82;21757;-58
2021/04/23 11:08:09;;;;;;;6.30;1.85;;;;;;;15.13;34.68;100611.67;1802221;77;22770;-60
2021/04/23 11:11:09;;;;;;;6.08;1.90;;;;;;;15.33;34.43;100609.77;1746701;80;21605;-63
2021/04/23 11:13:36;;;;;;;6.87;1.98;;;;;;;15.37;34.11;100615.12;1734320;81;21195;-61
2021/04/23 11:16:24;;;;;;;6.70;1.67;;;;;;;15.29;34.23;100621.16;1749364;81;21190;-61
2021/04/23 11:18:57;;;;;;;6.87;2.22;;;;;;;15.10;34.46;100623.92;1717014;81;28322;-60
2021/04/23 11:21:36;;;;;;;5.58;2.08;;;;;;;14.91;34.89;100617.72;1738418;81;21219;-60
2021/04/23 11:27:12;;;;;;;7.00;2.87;;;;;;;14.76;35.48;100605.44;1851746;76;28461;-63
2021/04/23 11:29:54;;;;;;;6.78;2.35;;;;;;;14.93;35.50;100604.30;1844327;75;21142;-59
2021/04/23 11:32:27;;;;;;;6.78;2.25;;;;;;;15.18;35.05;100601.47;1850880;77;22468;-61
2021/04/23 11:35:10;;;;;;;5.35;2.00;;;;;;;15.13;35.19;100600.61;1844290;75;21202;-62
2021/04/23 11:37:46;;;;;;;3.62;1.47;;;;;;;15.05;34.90;100597.35;1835333;77;21171;-61
2021/04/23 11:40:28;;;;;;;4.72;1.92;;;;;;;14.93;34.22;100595.03;1831232;75;21179;-60
2021/04/23 11:43:01;;;;;;;5.12;1.98;;;;;;;14.79;34.41;100602.97;1829528;77;21530;-61
2021/04/23 11:45:37;;;;;;;6.65;2.15;;;;;;;14.54;35.06;100603.94;1844343;77;22217;-61
2021/04/23 11:48:09;;;;;;;6.60;2.27;;;;;;;14.31;34.60;100605.56;1814834;77;21242;-61
2021/04/23 11:50:41;;;;;;;7.60;1.82;;;;;;;14.13;35.59;100600.64;1835705;75;21180;-60
2021/04/23 11:53:17;;;;;;;4.53;1.85;;;;;;;13.98;35.96;100590.14;1839117;76;21170;-63
2021/04/23 11:55:48;;;;;;;7.45;2.15;;;;;;;13.87;36.36;100589.78;1843713;75;21199;-63
2021/04/23 11:58:22;;;;;;;8.73;2.27;;;;;;;13.82;37.51;100583.61;1834091;76;21258;-58
2021/04/23 12:00:58;;;;;;;7.35;2.50;;;;;;;13.86;37.63;100582.84;1845271;76;21214;-58
2021/04/23 12:03:26;;;;;;;6.33;2.50;;;;;;;13.88;37.72;100580.38;1786573;78;21202;-59
2021/04/23 12:05:56;;;;;;;6.60;2.83;;;;;;;13.91;38.17;100582.75;1799740;78;21169;-57
2021/04/23 12:08:31;;;;;;;7.45;2.70;;;;;;;13.94;38.07;100579.84;1789498;78;21219;-57
2021/04/23 12:11:03;;;;;;;5.10;2.58;;;;;;;13.92;38.00;100575.67;1779731;79;21263;-54
2021/04/23 12:13:33;;;;;;;6.70;2.98;;;;;;;13.84;38.56;100584.30;1748466;78;21606;-58
2021/04/23 12:16:08;;;;;;;6.20;2.50;;;;;;;13.72;39.08;100583.59;1781439;79;21199;-57
2021/04/23 12:18:44;;;;;;;5.10;2.65;;;;;;;13.61;39.10;100575.78;1781776;78;21127;-58
2021/04/23 12:21:13;;;;;;;10.00;3.00;;;;;;;13.53;39.37;100576.49;1777438;78;21203;-57
2021/04/23 12:23:43;;;;;;;7.67;2.72;;;;;;;13.40;39.81;100566.66;1752947;80;21184;-58